Time;durP1;ratioP1;P1;durP2;ratioP2;P2;SDS_P1;SDS_P2;PMS_P1;PMS_P2;Temp;Humidity;BMP_temperature;BMP_pressure;BME280_temperature;BME280_humidity;BME280_pressure;Samples;Min_cycle;Max_cycle;Signal;HPM_P1;HPM_P2
2023/08/04 16:43:47;;;;;;;4.07;1.60;;;21.30;99.90;;;;;;5040973;22;20063;-82
2023/08/04 16:46:16;;;;;;;4.95;1.50;;;21.10;99.90;;;;;;5038650;28;20076;-82
2023/08/04 16:48:41;;;;;;;8.82;1.58;;;20.90;99.90;;;;;;5036985;28;20041;-82
2023/08/04 16:51:07;;;;;;;4.07;1.30;;;20.80;99.90;;;;;;5044249;28;20082;-82
2023/08/04 16:53:33;;;;;;;8.82;1.70;;;20.70;99.90;;;;;;5041848;28;20025;-82
2023/08/04 16:56:05;;;;;;;3.78;1.60;;;20.60;99.90;;;;;;5040953;28;20033;-81
2023/08/04 16:58:31;;;;;;;5.03;1.60;;;20.60;99.90;;;;;;5039486;28;20033;-82
2023/08/04 17:00:59;;;;;;;3.80;1.63;;;20.50;99.90;;;;;;5038517;28;20374;-82
2023/08/04 17:03:27;;;;;;;3.05;1.20;;;20.40;99.90;;;;;;5038823;28;20025;-81
2023/08/04 17:05:53;;;;;;;5.90;2.25;;;20.30;99.90;;;;;;5038810;28;20025;-81
2023/08/04 17:08:18;;;;;;;3.33;1.73;;;20.30;99.90;;;;;;5046109;28;20041;-81
2023/08/04 17:10:44;;;;;;;4.28;2.08;;;20.20;99.90;;;;;;5046687;28;20052;-82
2023/08/04 17:13:10;;;;;;;2.95;1.17;;;20.30;99.90;;;;;;5039765;28;20033;-82
2023/08/04 17:15:38;;;;;;;9.45;1.75;;;20.20;99.90;;;;;;5041729;28;20477;-82
2023/08/04 17:18:04;;;;;;;3.60;1.70;;;20.10;99.90;;;;;;5038173;28;20033;-82
2023/08/04 17:20:30;;;;;;;7.07;1.83;;;20.20;99.90;;;;;;5041251;28;20026;-82
2023/08/04 17:22:59;;;;;;;2.42;1.65;;;20.20;99.90;;;;;;5041038;28;20532;-82
2023/08/04 17:25:25;;;;;;;4.53;1.80;;;20.20;99.90;;;;;;5040847;28;20083;-82
2023/08/04 17:27:50;;;;;;;4.10;1.77;;;20.30;99.90;;;;;;5041382;28;20029;-81
2023/08/04 17:30:16;;;;;;;4.30;1.58;;;20.30;99.90;;;;;;5045170;28;20039;-82
2023/08/04 17:32:42;;;;;;;4.00;1.52;;;20.30;99.90;;;;;;5038290;28;20482;-81
2023/08/04 17:35:08;;;;;;;2.72;1.42;;;20.40;99.90;;;;;;5040624;28;20029;-82
2023/08/04 17:37:33;;;;;;;8.15;1.77;;;20.40;99.90;;;;;;5045480;28;20110;-82
2023/08/04 17:39:59;;;;;;;2.83;1.63;;;20.40;99.90;;;;;;5041290;28;20176;-82
2023/08/04 17:42:25;;;;;;;6.38;1.73;;;20.40;99.90;;;;;;5038652;28;21058;-81
2023/08/04 17:44:50;;;;;;;4.85;1.60;;;20.30;99.90;;;;;;5041528;28;20483;-83
2023/08/04 17:47:19;;;;;;;4.80;1.63;;;20.20;99.90;;;;;;5037676;28;20045;-82
2023/08/04 17:49:46;;;;;;;6.50;1.95;;;20.10;99.90;;;;;;5037958;28;20021;-82
2023/08/04 17:52:12;;;;;;;3.33;1.75;;;20.10;99.90;;;;;;5031189;28;20108;-82
2023/08/04 17:54:37;;;;;;;5.85;1.80;;;20.00;99.90;;;;;;5040290;28;20104;-82
2023/08/04 17:57:04;;;;;;;10.57;1.65;;;20.00;99.90;;;;;;5040329;28;20040;-82
2023/08/04 17:59:30;;;;;;;5.53;1.80;;;19.90;99.90;;;;;;5036628;28;20044;-82
2023/08/04 18:01:56;;;;;;;10.73;2.00;;;19.80;99.90;;;;;;5044894;28;20467;-82
2023/08/04 18:04:22;;;;;;;4.35;1.88;;;19.80;99.90;;;;;;5041010;28;20386;-82
2023/08/04 18:06:48;;;;;;;5.38;1.75;;;19.70;99.90;;;;;;5037740;28;20056;-82
2023/08/04 18:09:14;;;;;;;5.10;1.73;;;19.60;99.90;;;;;;5036966;28;20025;-82
2023/08/04 18:11:39;;;;;;;3.90;1.80;;;19.50;99.90;;;;;;5039180;28;20057;-83
2023/08/04 18:14:05;;;;;;;6.40;2.03;;;19.40;99.90;;;;;;5036750;28;20022;-82
2023/08/04 18:16:30;;;;;;;6.90;1.80;;;19.40;99.90;;;;;;5034209;28;20044;-82
2023/08/04 18:18:56;;;;;;;3.83;1.73;;;19.30;99.90;;;;;;5044131;28;20538;-82
2023/08/04 18:21:23;;;;;;;7.68;1.90;;;19.20;99.90;;;;;;5034728;28;20386;-83
2023/08/04 18:23:51;;;;;;;2.88;1.42;;;19.10;99.90;;;;;;5043309;28;20033;-84
2023/08/04 18:26:17;;;;;;;3.97;1.92;;;19.00;99.90;;;;;;5043136;28;20071;-83
2023/08/04 18:28:42;;;;;;;4.03;2.13;;;18.90;99.90;;;;;;5043277;28;20063;-83
2023/08/04 18:31:11;;;;;;;3.83;2.08;;;18.80;99.90;;;;;;5039093;28;20029;-83
2023/08/04 18:33:37;;;;;;;8.10;2.10;;;18.80;99.90;;;;;;5045292;28;20025;-83
2023/08/04 18:36:05;;;;;;;3.22;1.98;;;18.70;99.90;;;;;;5041602;28;20028;-83
2023/08/04 18:38:31;;;;;;;7.55;1.98;;;18.60;99.90;;;;;;5044437;28;20029;-83
2023/08/04 18:41:01;;;;;;;3.22;1.73;;;18.50;99.90;;;;;;5040990;28;20021;-83
2023/08/04 18:43:27;;;;;;;5.18;2.20;;;18.50;99.90;;;;;;5044181;28;20057;-83
2023/08/04 18:45:54;;;;;;;9.13;2.17;;;18.30;99.90;;;;;;5038791;28;20374;-83
2023/08/04 18:48:19;;;;;;;13.23;2.25;;;18.20;99.90;;;;;;5039000;28;20037;-83
2023/08/04 18:50:45;;;;;;;4.07;2.03;;;18.10;99.90;;;;;;5043195;28;20021;-84
2023/08/04 18:53:10;;;;;;;5.82;2.25;;;18.10;99.90;;;;;;5041202;28;20475;-84
2023/08/04 18:55:37;;;;;;;4.72;2.20;;;18.00;99.90;;;;;;5046406;28;20028;-84
2023/08/04 18:58:06;;;;;;;1.75;1.40;;;17.90;99.90;;;;;;5039182;28;20463;-84
2023/08/04 19:00:31;;;;;;;4.00;2.33;;;17.80;99.90;;;;;;5035611;28;20033;-83
2023/08/04 19:02:57;;;;;;;6.20;2.38;;;17.80;99.90;;;;;;5034630;28;20040;-84
2023/08/04 19:05:23;;;;;;;8.13;2.25;;;17.70;99.90;;;;;;5039900;28;20064;-84
2023/08/04 19:07:49;;;;;;;10.15;2.25;;;17.60;99.90;;;;;;5045979;28;20037;-84
2023/08/04 19:10:15;;;;;;;4.70;1.83;;;17.60;99.90;;;;;;5037299;28;20105;-84
2023/08/04 19:12:43;;;;;;;3.75;2.05;;;17.50;99.90;;;;;;5039956;28;20437;-84
2023/08/04 19:15:09;;;;;;;8.20;2.20;;;17.40;99.90;;;;;;5036759;28;20055;-84
2023/08/04 19:17:35;;;;;;;8.15;2.20;;;17.40;99.90;;;;;;5038561;28;20374;-83
2023/08/04 19:20:03;;;;;;;9.13;2.38;;;17.40;99.90;;;;;;5046594;28;20116;-84
2023/08/04 19:22:32;;;;;;;8.85;1.98;;;17.30;99.90;;;;;;5045743;28;20070;-83
2023/08/04 19:24:57;;;;;;;7.95;1.98;;;17.20;99.90;;;;;;5037127;28;20047;-83
2023/08/04 19:27:23;;;;;;;4.25;2.00;;;17.20;99.90;;;;;;5044150;28;20558;-83
2023/08/04 19:29:49;;;;;;;4.45;1.92;;;17.10;99.90;;;;;;5043729;28;20025;-83
2023/08/04 19:32:14;;;;;;;5.32;2.00;;;17.00;99.90;;;;;;5040144;28;20429;-83
2023/08/04 19:34:40;;;;;;;3.72;1.95;;;17.00;99.90;;;;;;5041737;28;20256;-83
2023/08/04 19:37:06;;;;;;;6.40;2.00;;;17.00;99.90;;;;;;5044330;28;20028;-83
2023/08/04 19:39:31;;;;;;;8.68;2.33;;;16.90;99.90;;;;;;5042752;28;20029;-84
2023/08/04 19:42:00;;;;;;;8.05;2.35;;;16.90;99.90;;;;;;5036115;28;20037;-82
2023/08/04 19:44:25;;;;;;;7.70;1.85;;;16.80;99.90;;;;;;5048866;28;20083;-83
2023/08/04 19:46:53;;;;;;;4.05;2.15;;;16.80;99.90;;;;;;5043985;28;20040;-83
2023/08/04 19:49:18;;;;;;;3.72;1.98;;;16.80;99.90;;;;;;5039276;28;20025;-83
2023/08/04 19:51:44;;;;;;;3.50;1.85;;;16.70;99.90;;;;;;5042098;28;20040;-83
2023/08/04 19:54:15;;;;;;;3.75;1.95;;;16.70;99.90;;;;;;5043452;28;20032;-83
2023/08/04 19:56:43;;;;;;;8.52;1.60;;;16.60;99.90;;;;;;5047667;28;20032;-84
2023/08/04 19:59:09;;;;;;;7.43;2.15;;;16.60;99.90;;;;;;5039704;28;20029;-84
2023/08/04 20:01:37;;;;;;;2.40;1.88;;;16.50;99.90;;;;;;5038242;28;20028;-83
2023/08/04 20:04:04;;;;;;;2.72;1.85;;;16.50;99.90;;;;;;5042399;28;20028;-84
2023/08/04 20:06:30;;;;;;;6.00;2.03;;;16.50;99.90;;;;;;5046493;28;20035;-83
2023/08/04 20:08:55;;;;;;;8.48;2.45;;;16.50;99.90;;;;;;5037361;28;20025;-84
2023/08/04 20:11:21;;;;;;;4.30;1.65;;;16.40;99.90;;;;;;5046212;28;20024;-84
2023/08/04 20:13:48;;;;;;;4.95;1.52;;;16.40;99.90;;;;;;5043144;28;20021;-84
2023/08/04 20:16:16;;;;;;;7.38;1.98;;;16.40;99.90;;;;;;5042884;28;20521;-84
2023/08/04 20:18:43;;;;;;;4.78;1.85;;;16.40;99.90;;;;;;5043331;28;20198;-84
2023/08/04 20:21:14;;;;;;;12.55;2.20;;;16.50;99.90;;;;;;5041373;28;20037;-85
2023/08/04 20:23:43;;;;;;;8.70;3.13;;;16.50;99.90;;;;;;5041993;28;20033;-83
2023/08/04 20:26:11;;;;;;;6.05;2.50;;;16.60;99.90;;;;;;5042798;28;20470;-82
2023/08/04 20:28:37;;;;;;;9.20;2.38;;;16.70;99.90;;;;;;5037476;28;20229;-83
2023/08/04 20:31:10;;;;;;;4.55;2.20;;;16.70;99.90;;;;;;5045874;28;20017;-83
2023/08/04 20:33:36;;;;;;;4.88;2.15;;;16.70;99.90;;;;;;5042657;28;20033;-83
2023/08/04 20:36:04;;;;;;;7.85;2.05;;;16.80;99.90;;;;;;5039136;28;20013;-83
2023/08/04 20:38:33;;;;;;;5.53;1.92;;;16.80;99.90;;;;;;5042994;28;20073;-83
2023/08/04 20:41:04;;;;;;;3.90;2.00;;;16.80;99.90;;;;;;5047316;28;20378;-83
2023/08/04 20:43:30;;;;;;;4.50;2.03;;;16.80;99.90;;;;;;5046819;28;20055;-84
2023/08/04 20:45:56;;;;;;;5.03;1.85;;;16.80;99.90;;;;;;5042401;28;20017;-84
2023/08/04 20:48:22;;;;;;;2.45;2.00;;;16.80;99.90;;;;;;5044252;28;20040;-84
2023/08/04 20:50:51;;;;;;;7.55;1.70;;;16.80;99.90;;;;;;5060774;28;20051;-82
2023/08/04 20:53:18;;;;;;;3.88;1.75;;;16.80;99.90;;;;;;5041491;28;20017;-83
2023/08/04 20:55:48;;;;;;;3.38;1.77;;;16.70;99.90;;;;;;5043841;28;20036;-84
2023/08/04 20:58:14;;;;;;;2.17;1.58;;;16.70;99.90;;;;;;5035431;28;20025;-83
2023/08/04 21:00:40;;;;;;;2.85;1.63;;;16.60;99.90;;;;;;5039651;28;20083;-84
2023/08/04 21:03:11;;;;;;;1.73;1.60;;;16.60;99.90;;;;;;5041798;28;20025;-82
2023/08/04 21:05:40;;;;;;;5.55;1.48;;;16.50;99.90;;;;;;5044492;28;20280;-84
2023/08/04 21:08:06;;;;;;;8.23;1.90;;;16.40;99.90;;;;;;5042669;28;20064;-84
2023/08/04 21:10:32;;;;;;;2.72;1.73;;;16.40;99.90;;;;;;5040878;28;20473;-85
2023/08/04 21:12:58;;;;;;;3.47;1.75;;;16.30;99.90;;;;;;5039364;28;20501;-85
2023/08/04 21:15:26;;;;;;;5.65;1.65;;;16.20;99.90;;;;;;5043617;28;20071;-84
2023/08/04 21:17:52;;;;;;;4.15;1.50;;;16.10;99.90;;;;;;5042040;28;20025;-83
2023/08/04 21:20:17;;;;;;;3.92;1.60;;;16.10;99.90;;;;;;5044435;28;20360;-83
2023/08/04 21:22:44;;;;;;;5.35;1.60;;;16.10;99.90;;;;;;5041007;28;20092;-83
2023/08/04 21:25:11;;;;;;;1.55;1.45;;;16.00;99.90;;;;;;5039597;28;20044;-83
2023/08/04 21:27:37;;;;;;;4.32;2.05;;;15.90;99.90;;;;;;5044011;28;20048;-83
2023/08/04 21:30:04;;;;;;;3.97;1.95;;;15.90;99.90;;;;;;5040259;28;20475;-83
2023/08/04 21:32:30;;;;;;;11.93;2.08;;;15.80;99.90;;;;;;5042056;28;20078;-83
2023/08/04 21:34:56;;;;;;;4.43;1.75;;;15.70;99.90;;;;;;5037997;28;20105;-83
2023/08/04 21:37:22;;;;;;;1.63;1.52;;;15.70;99.90;;;;;;5045375;28;20025;-83
2023/08/04 21:39:47;;;;;;;4.15;1.60;;;15.70;99.90;;;;;;5039399;28;20116;-83
2023/08/04 21:42:13;;;;;;;3.08;1.90;;;15.70;99.90;;;;;;5044586;28;20056;-83
2023/08/04 21:44:38;;;;;;;5.15;1.85;;;15.60;99.90;;;;;;5043489;28;20112;-83
2023/08/04 21:47:04;;;;;;;3.33;1.40;;;15.70;99.90;;;;;;5044662;28;20067;-83
2023/08/04 21:49:31;;;;;;;1.83;1.48;;;15.60;99.90;;;;;;5043828;28;20504;-82
2023/08/04 21:51:57;;;;;;;3.63;1.17;;;15.70;99.90;;;;;;5044381;28;20025;-83
2023/08/04 21:54:23;;;;;;;1.83;1.48;;;15.70;99.90;;;;;;5037848;28;20057;-83
2023/08/04 21:56:49;;;;;;;2.83;1.42;;;15.60;99.90;;;;;;5039658;28;20060;-82
2023/08/04 21:59:14;;;;;;;1.95;1.48;;;15.60;99.90;;;;;;5044841;28;20037;-82
2023/08/04 22:01:40;;;;;;;2.55;1.20;;;15.60;99.90;;;;;;5040327;28;20113;-82
2023/08/04 22:04:06;;;;;;;7.20;1.48;;;15.60;99.90;;;;;;5040540;28;20029;-82
2023/08/04 22:06:34;;;;;;;2.03;1.40;;;15.50;99.90;;;;;;5044942;28;20055;-81
2023/08/04 22:08:59;;;;;;;6.00;1.75;;;15.50;99.90;;;;;;5042942;28;20115;-82
2023/08/04 22:11:25;;;;;;;2.42;1.50;;;15.50;99.90;;;;;;5040250;28;20108;-82
2023/08/04 22:13:51;;;;;;;4.15;1.48;;;15.40;99.90;;;;;;5041535;28;20492;-82
2023/08/04 22:16:16;;;;;;;4.40;1.08;;;15.40;99.90;;;;;;5044632;28;20021;-83
2023/08/04 22:18:42;;;;;;;2.22;1.60;;;15.40;99.90;;;;;;5044734;28;20116;-81
2023/08/04 22:21:08;;;;;;;3.03;1.30;;;15.40;99.90;;;;;;5040952;28;20444;-82
2023/08/04 22:23:35;;;;;;;1.98;1.30;;;15.40;99.90;;;;;;5039053;28;20022;-82
2023/08/04 22:26:02;;;;;;;4.25;1.80;;;15.40;99.90;;;;;;5038340;28;20040;-82
2023/08/04 22:28:28;;;;;;;3.33;1.73;;;15.40;99.90;;;;;;5040868;28;20059;-82
2023/08/04 22:30:56;;;;;;;4.25;1.35;;;15.40;99.90;;;;;;5041348;28;20021;-82
2023/08/04 22:33:25;;;;;;;3.83;1.70;;;15.50;99.90;;;;;;5038877;28;20029;-83
2023/08/04 22:35:51;;;;;;;2.58;1.73;;;15.50;99.90;;;;;;5043185;28;20140;-83
2023/08/04 22:38:17;;;;;;;8.15;1.55;;;15.50;99.90;;;;;;5040752;28;20029;-81
2023/08/04 22:41:22;;;;;;;8.73;3.25;;;15.60;99.90;;;;;;5073871;27;20129;-81
2023/08/04 22:43:48;;;;;;;2.25;1.63;;;15.60;99.90;;;;;;5049534;28;20108;-82
2023/08/04 22:46:13;;;;;;;2.97;1.40;;;15.60;99.90;;;;;;5064324;28;20078;-82
2023/08/04 22:48:40;;;;;;;2.90;1.23;;;15.50;99.90;;;;;;5060908;28;20421;-82
2023/08/04 22:51:12;;;;;;;1.33;1.23;;;15.50;99.90;;;;;;5062849;28;20033;-82
2023/08/04 22:53:38;;;;;;;5.65;1.30;;;15.50;99.90;;;;;;5062800;28;20028;-81
2023/08/04 22:56:04;;;;;;;2.28;1.67;;;15.40;99.90;;;;;;5059145;28;20091;-82
2023/08/04 22:58:29;;;;;;;1.38;1.27;;;15.40;99.90;;;;;;5062700;28;20112;-81
2023/08/04 23:00:55;;;;;;;1.52;1.27;;;15.40;99.90;;;;;;5063694;28;20480;-82
2023/08/04 23:03:21;;;;;;;1.23;1.13;;;15.40;99.90;;;;;;5062633;28;20398;-81
2023/08/04 23:05:49;;;;;;;1.48;1.38;;;15.40;99.90;;;;;;5064003;28;20028;-80
2023/08/04 23:08:15;;;;;;;1.52;1.27;;;15.40;99.90;;;;;;5055898;28;20037;-82
2023/08/04 23:10:41;;;;;;;1.08;1.02;;;15.30;99.90;;;;;;5055467;28;20041;-82
2023/08/04 23:13:06;;;;;;;1.15;1.13;;;15.30;99.90;;;;;;5061911;28;20013;-81
2023/08/04 23:15:32;;;;;;;2.33;1.40;;;15.30;99.90;;;;;;5062100;28;20033;-82
2023/08/04 23:17:57;;;;;;;1.35;1.25;;;15.20;99.90;;;;;;5060763;28;20020;-81
2023/08/04 23:20:26;;;;;;;2.38;1.58;;;15.20;99.90;;;;;;5051862;28;20514;-82
2023/08/04 23:22:51;;;;;;;4.88;1.25;;;15.10;99.90;;;;;;5059918;28;20151;-82
2023/08/04 23:25:17;;;;;;;7.43;1.40;;;15.10;99.90;;;;;;5062397;28;20493;-81
2023/08/04 23:27:42;;;;;;;2.38;1.38;;;15.00;99.90;;;;;;5062451;28;20050;-82
2023/08/04 23:30:08;;;;;;;2.70;1.80;;;15.00;99.90;;;;;;5050686;28;20040;-82
2023/08/04 23:32:34;;;;;;;5.05;1.70;;;14.90;99.90;;;;;;5057623;28;20466;-82
2023/08/04 23:34:59;;;;;;;3.28;1.80;;;14.90;99.90;;;;;;5046175;28;20025;-82
2023/08/04 23:37:25;;;;;;;2.45;1.55;;;14.90;99.90;;;;;;5064597;28;20130;-82
2023/08/04 23:39:50;;;;;;;4.50;1.63;;;14.90;99.90;;;;;;5062513;28;20508;-82
2023/08/04 23:42:16;;;;;;;2.88;1.73;;;14.80;99.90;;;;;;5082171;28;20036;-82
2023/08/04 23:44:41;;;;;;;3.15;1.75;;;14.80;99.90;;;;;;5081900;28;20017;-82
2023/08/04 23:47:07;;;;;;;2.00;1.90;;;14.80;99.90;;;;;;5073341;28;20053;-80
2023/08/04 23:49:33;;;;;;;2.72;1.70;;;14.80;99.90;;;;;;5075839;28;20496;-81
2023/08/04 23:51:58;;;;;;;1.67;1.58;;;14.80;99.90;;;;;;5066405;28;20027;-82
2023/08/04 23:54:24;;;;;;;6.43;1.67;;;14.80;99.90;;;;;;5064260;28;20032;-82
2023/08/04 23:56:49;;;;;;;5.47;2.13;;;14.80;99.90;;;;;;5064175;28;20024;-82
2023/08/04 23:59:15;;;;;;;3.20;1.98;;;14.80;99.90;;;;;;5064088;28;20060;-82
